New Philadelphia, OH

7:57 PM EST on March 03, 2015 (GMT -0500)
Clever | Change Station
CLOSE
Current Station
Airport
Location: New Philadelphia,
Elevation: 892 ft
Nearby Weather Stations

Elev 892 ft 40.47 °N, 81.42 °W | Updated 1 hour ago

Rain
Rain
46 °F
Feels Like 41 °F
N
10
Wind Variable Wind from SW
Gusts 17 mph

Today
High -- | Low -- °F
--% Chance of Precip.
Yesterday
High -- | Low -- °F
Precip. -- in
6:56 AM 6:19 PM
Waxing Gibbous, 97% visible
Pressure 29.75 in
Visibility 5.0 miles
Clouds Overcast 700 ft
Windchill 41 °F
Dew Point 42 °F
Humidity 86%
Rainfall 0.28 in
Snow Depth Not available.
UV 0 out of 12
Pollen .50 out of 12
Air Quality Not available.
Flu Activity Not available.
METAR KPHD 032353Z AUTO 22009G15KT 200V270 5SM -RA BR OVC007 08/06 A2973 RMK AO2 CIG 006V011 SLP073 P0003 60028 T00780056 10078 20022 55005

More Conditions Fewer Conditions

Pressure 29.75 in
Visibility 5.0 miles
Clouds Overcast 700 ft
Windchill 41 °F
Dew Point 42 °F
Humidity 86%
Rainfall 0.28 in
Snow Depth Not available.
UV 0 out of 12
Pollen .50 out of 12
Air Quality Not available.
Flu Activity Not available.
METAR KPHD 032353Z AUTO 22009G15KT 200V270 5SM -RA BR OVC007 08/06 A2973 RMK AO2 CIG 006V011 SLP073 P0003 60028 T00780056 10078 20022 55005

More Conditions Fewer Conditions

10-Day Weather Forecast

Almanac

Astronomy

Mar. 03, 2015 Rise Set
Actual Time
Civil Twilight
Nautical Twilight
Astronomical Twilight
Moon
Length of Visible Light
Length of Day
Tomorrow will be .
, % of the Moon is Illuminated

Today's Extremes

State Highs State Lows

Community

WunderPhotos

Upload Photos

1,802,340 photos uploaded!

WunderBlogs® & News

Nearby

Air Quality

  Air Quality AQ Index Pollutant
Not available.

Snow Depth

Station Depth Elevation

Earthquake Activity

City Distance Mag. Time & Date
Minimum magnitude displayed is 2.5.

Coastal Water Temperatures

Place Temperature

Nearby Weather Stations